Burns, OR

10:30 PM PDT on August 21, 2014 (GMT -0700)
Burns Municipal | Change Station
CLOSE
Current Station
Airport
Location: Burns,
Elevation: 4170 ft
Nearby Weather Stations

Elev 4170 ft 43.60 °N, 118.96 °W | Updated 37 minutes ago

Clear
Clear
58 °F
Feels Like 58 °F
N
12
Wind Variable Wind from West

Today
High -- | Low -- °F
--% Chance of Precip.
Yesterday
High -- | Low -- °F
Precip. -- in
6:06 AM 7:48 PM
Waning Crescent, 10% visible
Pressure 29.90 in
Visibility 10.0 miles
Clouds Clear
Dew Point 18 °F
Humidity 21%
Rainfall 0.00 in
Snow Depth Not available.
UV 0 out of 12
Pollen 5.70 out of 12
Air Quality Not available.
Flu Activity Not available.
METAR KBNO 220453Z AUTO 27010KT 10SM CLR 14/M08 A2998 RMK AO2 SLP124 T01441078

More Conditions Fewer Conditions

Pressure 29.90 in
Visibility 10.0 miles
Clouds Clear
Dew Point 18 °F
Humidity 21%
Rainfall 0.00 in
Snow Depth Not available.
UV 0 out of 12
Pollen 5.70 out of 12
Air Quality Not available.
Flu Activity Not available.
METAR KBNO 220453Z AUTO 27010KT 10SM CLR 14/M08 A2998 RMK AO2 SLP124 T01441078

More Conditions Fewer Conditions

10-Day Weather Forecast

Almanac

Astronomy

Aug. 21, 2014 Rise Set
Actual Time 6:06 AM PDT 7:48 PM PDT
Civil Twilight 5:36 AM PDT 8:19 PM PDT
Nautical Twilight 4:59 AM PDT 8:55 PM PDT
Astronomical Twilight 4:19 AM PDT 9:35 PM PDT
Moon 2:38 AM PDT (8/21) 5:23 PM PDT (8/21)
Length of Visible Light 14h 42m
Length of Day
13h 42m
Tomorrow will be 2m 44s shorter.
Waning Crescent, 10% of the Moon is Illuminated
Aug 22
Waning Crescent
Aug 25
New
Sep 2
First Quarter
Sep 8
Full
Sep 15
Last Quarter

Yesterday's Extremes

State Highs State Lows

Community

WunderPhotos

Upload Photos

1,746,131 photos uploaded!

Nearby

Snow Depth

Station Depth Elevation
Rock Springs 0 in 5550 ft
Blue Mountain Spring 0 in 5900 ft
Starr Ridge 0 in 5300 ft
Fish Creek 0 in 7900 ft
Tipton 0 in 5150 ft

Earthquake Activity

City Distance Mag. Time & Date
No recent earthquake activity has been reported nearby.
Minimum magnitude displayed is 2.5.

Coastal Water Temperatures

Place Temperature
No Stations Reporting

Nearby Weather Stations